createdAt,value
2022-10-04T00:02:01.137Z,1.05
2022-10-04T00:05:14.045Z,1.90
2022-10-04T00:09:04.094Z,2.05
2022-10-04T00:12:30.448Z,1.48
2022-10-04T00:15:40.460Z,7.45
2022-10-04T00:19:16.542Z,3.92
2022-10-04T00:23:25.860Z,2.08
2022-10-04T00:26:32.104Z,0.77
2022-10-04T00:30:04.465Z,2.10
2022-10-04T00:33:47.416Z,1.52
2022-10-04T00:37:20.677Z,3.00
2022-10-04T00:40:38.636Z,1.87
2022-10-04T00:43:49.346Z,3.05
2022-10-04T00:46:59.402Z,3.22
2022-10-04T00:50:22.616Z,1.58
2022-10-04T00:53:53.706Z,2.35
2022-10-04T00:57:23.945Z,4.15
2022-10-04T01:00:34.321Z,4.00
2022-10-04T01:04:01.932Z,2.53
2022-10-04T01:07:16.409Z,2.28
2022-10-04T01:10:43.393Z,1.10
2022-10-04T01:14:02.022Z,4.50
2022-10-04T01:17:26.732Z,1.48
2022-10-04T01:20:56.615Z,2.67
2022-10-04T01:24:22.669Z,2.25
2022-10-04T01:28:06.920Z,3.22
2022-10-04T01:34:22.236Z,1.85
2022-10-04T01:37:47.335Z,3.40
2022-10-04T01:41:15.995Z,4.68
2022-10-04T01:44:31.532Z,4.45
2022-10-04T01:48:00.504Z,0.90
2022-10-04T01:51:14.596Z,2.03
2022-10-04T01:54:55.803Z,2.45
2022-10-04T02:01:39.804Z,1.58
2022-10-04T02:04:53.862Z,2.83
2022-10-04T02:07:58.753Z,2.03
2022-10-04T02:11:30.587Z,2.50
2022-10-04T02:14:35.508Z,3.75
2022-10-04T02:17:43.950Z,4.37
2022-10-04T02:21:07.777Z,2.45
2022-10-04T02:24:41.653Z,4.00
2022-10-04T02:27:45.306Z,0.75
2022-10-04T02:31:31.730Z,4.37
2022-10-04T02:34:58.483Z,1.40
2022-10-04T02:38:25.528Z,1.55
2022-10-04T02:41:56.775Z,3.83
2022-10-04T02:45:20.477Z,3.35
2022-10-04T02:52:22.027Z,1.80
2022-10-04T02:55:36.086Z,3.75
2022-10-04T02:59:08.439Z,1.55
2022-10-04T03:02:31.700Z,2.78
2022-10-04T03:05:37.106Z,1.00
2022-10-04T03:09:04.245Z,4.43
2022-10-04T03:12:12.588Z,2.25
2022-10-04T03:15:18.155Z,1.62
2022-10-04T03:18:22.977Z,3.67
2022-10-04T03:21:49.909Z,1.02
2022-10-04T03:25:38.197Z,1.25
2022-10-04T03:29:34.445Z,3.58
2022-10-04T03:32:40.456Z,3.03
2022-10-04T03:36:03.723Z,2.67
2022-10-04T03:39:12.004Z,1.75
2022-10-04T03:42:37.056Z,3.42
2022-10-04T03:45:46.473Z,1.23
2022-10-04T03:49:16.719Z,0.95
2022-10-04T03:52:28.900Z,3.25
2022-10-04T03:55:43.776Z,1.95
2022-10-04T03:59:07.582Z,5.10
2022-10-04T04:02:32.305Z,3.28
2022-10-04T04:06:00.614Z,1.95
2022-10-04T04:09:43.946Z,2.67
2022-10-04T04:13:24.372Z,1.83
2022-10-04T04:16:47.948Z,4.03
2022-10-04T04:20:03.455Z,5.85
2022-10-04T04:23:16.168Z,2.37
2022-10-04T04:26:35.053Z,2.15
2022-10-04T04:30:01.163Z,2.35
2022-10-04T04:33:23.637Z,1.55
2022-10-04T04:36:40.885Z,3.22
2022-10-04T04:39:50.299Z,2.12
2022-10-04T04:43:30.978Z,6.07
2022-10-04T04:47:07.945Z,3.78
2022-10-04T04:50:27.400Z,3.45
2022-10-04T04:53:32.888Z,2.33
2022-10-04T04:56:57.587Z,1.12
2022-10-04T05:00:26.345Z,2.03
2022-10-04T05:03:31.652Z,1.20
2022-10-04T05:06:39.962Z,3.55
2022-10-04T05:09:42.508Z,2.10
2022-10-04T05:12:47.436Z,1.90
2022-10-04T05:16:21.768Z,3.80
2022-10-04T05:20:09.842Z,8.57
2022-10-04T05:23:42.706Z,5.32
2022-10-04T05:27:37.966Z,2.62
2022-10-04T05:31:03.524Z,2.55
2022-10-04T05:34:50.463Z,2.60
2022-10-04T05:38:28.972Z,1.60
2022-10-04T05:42:07.887Z,1.83
2022-10-04T05:45:35.776Z,2.37
2022-10-04T05:48:48.695Z,3.08
2022-10-04T05:52:16.253Z,1.27
2022-10-04T05:55:58.660Z,1.42
2022-10-04T05:59:25.326Z,2.78
2022-10-04T06:03:10.509Z,6.18
2022-10-04T06:06:28.855Z,2.87
2022-10-04T06:09:35.004Z,4.00
2022-10-04T06:12:55.942Z,2.35
2022-10-04T06:16:41.922Z,1.80
2022-10-04T06:20:06.263Z,1.67
2022-10-04T06:23:36.154Z,2.05
2022-10-04T06:26:40.952Z,1.30
2022-10-04T06:29:56.049Z,2.33
2022-10-04T06:33:17.347Z,2.30
2022-10-04T06:36:31.292Z,3.62
2022-10-04T06:40:09.088Z,1.58
2022-10-04T06:43:40.008Z,3.33
2022-10-04T06:46:56.563Z,2.40
2022-10-04T06:50:29.950Z,2.33
2022-10-04T06:54:27.907Z,1.15
2022-10-04T06:58:08.811Z,1.52
2022-10-04T07:01:35.847Z,1.20
2022-10-04T07:05:14.771Z,2.75
2022-10-04T07:08:51.851Z,1.87
2022-10-04T07:12:09.537Z,4.32
2022-10-04T07:19:25.041Z,2.35
2022-10-04T07:23:00.322Z,1.08
2022-10-04T07:26:48.144Z,1.70
2022-10-04T07:30:20.780Z,5.20
2022-10-04T07:34:18.424Z,1.12
2022-10-04T07:41:53.703Z,1.37
2022-10-04T07:45:18.390Z,2.12
2022-10-04T07:52:48.111Z,2.08
2022-10-04T07:56:44.263Z,1.50
2022-10-04T08:00:12.487Z,2.28
2022-10-04T08:03:52.330Z,2.10
2022-10-04T08:07:31.744Z,2.80
2022-10-04T08:11:45.916Z,1.60
2022-10-04T08:15:08.467Z,2.08
2022-10-04T08:18:54.420Z,1.30
2022-10-04T08:22:27.228Z,2.10
2022-10-04T08:25:48.726Z,2.70
2022-10-04T08:29:43.143Z,2.25
2022-10-04T08:33:20.884Z,4.28
2022-10-04T08:36:48.306Z,5.93
2022-10-04T08:40:28.825Z,0.93
2022-10-04T08:44:21.303Z,2.10
2022-10-04T08:48:10.021Z,4.45
2022-10-04T08:55:08.687Z,3.42
2022-10-04T08:58:41.618Z,2.17
2022-10-04T09:02:29.249Z,1.05
2022-10-04T09:05:53.917Z,1.30
2022-10-04T09:09:39.858Z,1.33
2022-10-04T09:13:25.675Z,2.03
2022-10-04T09:16:56.517Z,1.77
2022-10-04T09:20:39.960Z,2.30
2022-10-04T09:24:18.699Z,3.55
2022-10-04T09:27:58.301Z,1.30
2022-10-04T09:31:17.965Z,0.65
2022-10-04T09:35:13.385Z,1.98
2022-10-04T09:42:52.579Z,1.50
2022-10-04T09:46:51.224Z,1.73
2022-10-04T09:50:49.685Z,1.40
2022-10-04T09:55:21.024Z,1.27
2022-10-04T10:03:48.838Z,0.82
2022-10-04T10:07:57.980Z,1.85
2022-10-04T10:12:37.819Z,1.85
2022-10-04T10:16:26.424Z,1.33
2022-10-04T10:24:06.393Z,1.12
2022-10-04T10:28:08.196Z,4.72
2022-10-04T10:32:03.314Z,3.47
2022-10-04T10:44:44.480Z,1.92
2022-10-04T10:48:49.543Z,1.90
2022-10-04T10:57:01.836Z,1.23
2022-10-04T11:00:49.981Z,1.90
2022-10-04T11:04:31.737Z,3.33
2022-10-04T11:08:18.295Z,1.90
2022-10-04T11:11:50.803Z,1.33
2022-10-04T11:14:53.387Z,1.50
2022-10-04T11:18:07.839Z,0.68
2022-10-04T11:21:17.987Z,2.10
2022-10-04T11:24:45.076Z,1.75
2022-10-04T11:28:10.038Z,2.22
2022-10-04T11:31:17.709Z,1.40
2022-10-04T11:34:48.300Z,1.20
2022-10-04T11:37:57.522Z,0.73
2022-10-04T11:41:25.163Z,0.77
2022-10-04T11:44:52.500Z,1.67
2022-10-04T11:48:27.570Z,1.42
2022-10-04T11:51:47.930Z,1.05
2022-10-04T11:55:15.634Z,1.60
2022-10-04T11:58:40.036Z,1.50
2022-10-04T12:02:13.301Z,0.85
2022-10-04T12:05:33.470Z,1.20
2022-10-04T12:08:54.288Z,0.70
2022-10-04T12:12:37.821Z,1.30
2022-10-04T12:15:49.434Z,1.45
2022-10-04T12:19:15.493Z,1.65
2022-10-04T12:22:49.812Z,1.65
2022-10-04T12:26:50.033Z,1.20
2022-10-04T12:30:02.633Z,2.45
2022-10-04T12:33:23.725Z,2.10
2022-10-04T12:36:28.908Z,2.00
2022-10-04T12:40:03.131Z,1.83
2022-10-04T12:43:30.465Z,1.37
2022-10-04T12:46:53.025Z,3.08
2022-10-04T12:50:26.310Z,1.70
2022-10-04T12:53:56.681Z,1.85
2022-10-04T12:57:49.891Z,1.02
2022-10-04T13:05:11.201Z,0.85
2022-10-04T13:08:32.684Z,0.98
2022-10-04T13:11:47.148Z,1.62
2022-10-04T13:15:07.545Z,1.40
2022-10-04T13:18:22.033Z,2.58
2022-10-04T13:21:27.705Z,0.88
2022-10-04T13:24:52.984Z,1.00
2022-10-04T13:28:32.006Z,2.10
2022-10-04T13:31:37.045Z,2.85
2022-10-04T13:34:56.948Z,3.70
2022-10-04T13:38:35.993Z,1.45
2022-10-04T13:41:48.225Z,0.60
2022-10-04T13:45:09.149Z,0.80
2022-10-04T13:48:56.711Z,0.80
2022-10-04T13:52:53.644Z,2.15
2022-10-04T13:56:26.482Z,0.55
2022-10-04T13:59:40.094Z,0.40
2022-10-04T14:02:52.369Z,1.00
2022-10-04T14:06:20.793Z,0.47
2022-10-04T14:09:38.254Z,0.60
2022-10-04T14:13:03.071Z,0.73
2022-10-04T14:16:14.268Z,0.77
2022-10-04T14:19:38.050Z,0.50
2022-10-04T14:22:56.391Z,0.70
2022-10-04T14:26:07.468Z,0.60
2022-10-04T14:29:49.901Z,1.55
2022-10-04T14:32:59.109Z,1.70
2022-10-04T14:36:29.393Z,3.22
2022-10-04T14:39:50.208Z,0.77
2022-10-04T14:43:03.204Z,0.50
2022-10-04T14:46:31.236Z,1.00
2022-10-04T14:50:08.678Z,0.68
2022-10-04T14:53:28.471Z,0.75
2022-10-04T14:56:53.989Z,0.90
2022-10-04T15:00:19.746Z,1.08
2022-10-04T15:03:53.226Z,0.93
2022-10-04T15:07:16.704Z,1.25
2022-10-04T15:10:34.332Z,2.53
2022-10-04T15:14:06.898Z,2.45
2022-10-04T15:17:37.842Z,0.70
2022-10-04T15:21:28.914Z,7.70
2022-10-04T15:24:51.375Z,2.28
2022-10-04T15:27:58.557Z,1.45
2022-10-04T15:31:16.539Z,3.65
2022-10-04T15:34:47.042Z,1.27
2022-10-04T15:37:59.848Z,2.97
2022-10-04T15:41:28.901Z,0.68
2022-10-04T15:44:41.012Z,2.37
2022-10-04T15:48:11.258Z,3.22
2022-10-04T15:51:44.738Z,1.30
2022-10-04T15:55:13.043Z,2.03
2022-10-04T15:58:28.598Z,1.77
2022-10-04T16:02:31.604Z,5.55
2022-10-04T16:06:04.792Z,2.25
2022-10-04T16:09:41.800Z,1.62
2022-10-04T16:12:51.088Z,1.25
2022-10-04T16:16:33.216Z,3.90
2022-10-04T16:20:02.102Z,2.50
2022-10-04T16:23:29.869Z,3.95
2022-10-04T16:26:35.706Z,3.58
2022-10-04T16:30:25.539Z,8.85
2022-10-04T16:34:08.080Z,2.83
2022-10-04T16:37:10.457Z,4.78
2022-10-04T16:40:13.472Z,2.00
2022-10-04T16:43:17.686Z,6.30
2022-10-04T16:46:30.148Z,3.35
2022-10-04T16:49:54.269Z,3.75
2022-10-04T16:53:23.316Z,7.95
2022-10-04T16:56:28.991Z,7.72
2022-10-04T16:59:44.284Z,9.05
2022-10-04T17:03:32.883Z,8.10
2022-10-04T17:07:12.361Z,7.40
2022-10-04T17:11:28.320Z,7.03
2022-10-04T17:15:49.765Z,4.57
2022-10-04T17:19:52.556Z,3.90
2022-10-04T17:23:50.663Z,3.80
2022-10-04T17:27:46.780Z,4.40
2022-10-04T17:35:10.228Z,4.00
2022-10-04T17:39:08.383Z,2.95
2022-10-04T17:42:49.090Z,3.37
2022-10-04T17:45:57.993Z,2.90
2022-10-04T17:50:01.424Z,2.75
2022-10-04T17:53:34.393Z,2.80
2022-10-04T17:57:25.520Z,3.42
2022-10-04T18:00:53.453Z,2.67
2022-10-04T18:04:09.245Z,5.20
2022-10-04T18:07:29.824Z,6.87
2022-10-04T18:20:30.027Z,3.85
2022-10-04T18:31:35.416Z,3.60
2022-10-04T18:35:26.333Z,2.65
2022-10-04T18:46:43.713Z,8.07
2022-10-04T18:50:27.787Z,4.65
2022-10-04T19:28:08.514Z,11.02
2022-10-04T19:32:04.360Z,10.43
2022-10-04T19:44:50.030Z,17.40
2022-10-04T19:49:01.927Z,11.88
2022-10-04T20:01:13.963Z,16.02
2022-10-04T20:05:12.546Z,14.48
2022-10-04T20:13:27.006Z,10.90
2022-10-04T20:17:48.961Z,9.52
2022-10-04T20:22:00.018Z,13.43
2022-10-04T20:25:51.839Z,11.88
2022-10-04T20:29:46.622Z,11.40
2022-10-04T20:33:39.958Z,11.55
2022-10-04T20:37:49.497Z,14.05
2022-10-04T20:42:15.741Z,11.57
2022-10-04T20:45:45.541Z,10.70
2022-10-04T20:49:28.590Z,11.07
2022-10-04T20:53:35.572Z,17.17
2022-10-04T20:57:24.836Z,12.30
2022-10-04T21:00:56.877Z,11.45
2022-10-04T21:04:33.103Z,18.30
2022-10-04T21:08:33.630Z,11.93
2022-10-04T21:12:41.313Z,20.88
2022-10-04T21:15:57.170Z,24.40
2022-10-04T21:19:36.640Z,14.23
2022-10-04T21:22:42.095Z,12.02
2022-10-04T21:25:51.781Z,15.63
2022-10-04T21:29:14.151Z,14.87
2022-10-04T21:32:27.958Z,15.15
2022-10-04T21:35:42.360Z,15.30
2022-10-04T21:38:47.710Z,14.95
2022-10-04T21:41:58.873Z,14.93
2022-10-04T21:45:22.231Z,12.48
2022-10-04T21:48:45.436Z,11.07
2022-10-04T21:52:21.348Z,12.85
2022-10-04T21:56:07.659Z,11.75
2022-10-04T21:59:53.766Z,9.93
2022-10-04T22:03:19.979Z,15.05
2022-10-04T22:06:47.535Z,9.18
2022-10-04T22:10:40.023Z,14.55
2022-10-04T22:14:29.868Z,9.75
2022-10-04T22:17:58.680Z,14.02
2022-10-04T22:21:07.394Z,9.43
2022-10-04T22:28:19.578Z,8.93
2022-10-04T22:32:02.090Z,10.10
2022-10-04T22:35:32.235Z,14.80
2022-10-04T22:39:30.502Z,12.52
2022-10-04T22:42:56.371Z,8.40
2022-10-04T22:50:35.125Z,10.55
2022-10-04T22:53:47.054Z,8.10
2022-10-04T22:57:10.643Z,11.88
2022-10-04T23:03:50.153Z,6.80
2022-10-04T23:07:21.213Z,10.30
2022-10-04T23:10:34.756Z,8.65
2022-10-04T23:13:58.996Z,6.93
2022-10-04T23:17:42.901Z,9.98
2022-10-04T23:21:32.300Z,9.63
2022-10-04T23:25:00.435Z,7.22
2022-10-04T23:28:27.266Z,8.23
2022-10-04T23:31:58.547Z,13.20
2022-10-04T23:35:38.174Z,8.00
2022-10-04T23:39:28.457Z,7.82
2022-10-04T23:42:56.416Z,7.55
2022-10-04T23:46:46.279Z,9.32
2022-10-04T23:50:35.222Z,6.25
2022-10-04T23:54:38.504Z,9.45
2022-10-04T23:58:41.910Z,6.40
